EGHH/BOH METAR and TAF weather

Enter ICAO airport designator
Station Type Date Time Source
EGHH METAR 2022/06/29 21:50 UTC NOAA

EGHH 292150Z 21004KT 9999 FEW025 14/12 Q1011


Station Type Date Time Source
EGHH Decoded METAR 2022/06/29 21:50 UTC NOAA

Bournemouth Airport, United Kingdom (EGHH) 50-47N 001-50W 0M
Jun 29, 2022 - 05:50 PM EDT / 2022.06.29 2150 UTC
Wind: from the SSW (210 degrees) at 5 MPH (4 KT):0
Visibility: greater than 7 mile(s):0
Sky conditions: mostly clear
Temperature: 57 F (14 C)
Dew Point: 53 F (12 C)
Relative Humidity: 87%
Pressure (altimeter): 29.85 in. Hg (1011 hPa)
ob: EGHH 292150Z 21004KT 9999 FEW025 14/12 Q1011
cycle: 22

Station Type Date Time Source
EGHH TAF 2021/10/07 18:59 UTC NOAA

TAF EGHH 071752Z 0718/0823 CNL

Example: see airport list